Time;durP1;ratioP1;P1;durP2;ratioP2;P2;SDS_P1;SDS_P2;PMS_P1;PMS_P2;Temp;Humidity;BMP_temperature;BMP_pressure;BME280_temperature;BME280_humidity;BME280_pressure;Samples;Min_cycle;Max_cycle;Signal;HPM_P1;HPM_P2
2024/02/02 00:00:14;;;;;;;9.40;6.00;;;21.00;99.90;;;;;;4936322;29;20376;-51
2024/02/02 00:02:40;;;;;;;9.27;6.10;;;21.00;99.90;;;;;;4936320;29;20048;-51
2024/02/02 00:05:07;;;;;;;7.15;5.18;;;21.00;99.90;;;;;;4936334;29;20499;-51
2024/02/02 00:07:33;;;;;;;7.75;5.97;;;20.90;99.90;;;;;;4936087;29;20035;-51
2024/02/02 00:09:59;;;;;;;11.30;6.43;;;21.00;99.90;;;;;;4935879;29;20023;-52
2024/02/02 00:12:26;;;;;;;8.98;5.65;;;20.90;99.90;;;;;;4936375;29;20035;-52
2024/02/02 00:14:52;;;;;;;7.55;5.50;;;20.90;99.90;;;;;;4935936;29;20019;-52
2024/02/02 00:17:19;;;;;;;7.40;5.25;;;20.90;99.90;;;;;;4935712;29;20027;-52
2024/02/02 00:19:45;;;;;;;9.27;5.95;;;20.90;99.90;;;;;;4935903;29;20031;-50
2024/02/02 00:22:11;;;;;;;9.52;6.38;;;20.90;99.90;;;;;;4936033;29;20039;-51
2024/02/02 00:24:37;;;;;;;8.57;5.53;;;20.90;99.90;;;;;;4935853;29;20118;-51
2024/02/02 00:27:04;;;;;;;8.70;5.72;;;20.90;99.90;;;;;;4918625;29;20107;-51
2024/02/02 00:29:29;;;;;;;9.57;5.88;;;20.90;99.90;;;;;;4935795;29;20030;-51
2024/02/02 00:31:55;;;;;;;8.40;5.60;;;20.90;99.90;;;;;;4935689;29;20027;-51
2024/02/02 00:34:21;;;;;;;8.52;5.35;;;20.80;99.90;;;;;;4935572;29;20032;-51
2024/02/02 00:36:47;;;;;;;7.65;5.38;;;20.90;99.90;;;;;;4935664;29;20107;-51
2024/02/02 00:39:13;;;;;;;9.13;5.18;;;20.80;99.90;;;;;;4935557;29;20039;-52
2024/02/02 00:41:38;;;;;;;6.68;5.18;;;20.80;99.90;;;;;;4935650;29;20027;-51
2024/02/02 00:44:06;;;;;;;5.88;4.68;;;20.80;99.90;;;;;;4935514;29;20381;-51
2024/02/02 00:46:31;;;;;;;8.18;5.43;;;20.80;99.90;;;;;;4935522;29;20048;-52
2024/02/02 00:48:57;;;;;;;7.13;5.55;;;20.80;99.90;;;;;;4935320;29;20519;-52
2024/02/02 00:51:23;;;;;;;7.05;4.85;;;20.80;99.90;;;;;;4935298;29;20036;-51
2024/02/02 00:53:49;;;;;;;8.05;5.82;;;20.80;99.90;;;;;;4935246;29;20523;-51
2024/02/02 00:56:15;;;;;;;7.43;5.50;;;20.80;99.90;;;;;;4935246;29;20027;-51
2024/02/02 00:58:41;;;;;;;6.63;5.00;;;20.80;99.90;;;;;;4935505;29;20393;-51
2024/02/02 01:01:07;;;;;;;6.97;5.05;;;20.80;99.90;;;;;;4937778;23;20047;-59
2024/02/02 01:03:37;;;;;;;8.43;5.03;;;20.70;99.90;;;;;;4954410;29;20023;-61
2024/02/02 01:06:06;;;;;;;6.70;5.03;;;20.70;99.90;;;;;;4954320;29;20034;-61
2024/02/02 01:08:32;;;;;;;11.00;5.55;;;20.70;99.90;;;;;;4954225;29;20023;-61
2024/02/02 01:10:57;;;;;;;8.52;4.97;;;20.70;99.90;;;;;;4954167;29;20073;-58
2024/02/02 01:13:23;;;;;;;7.45;4.70;;;20.70;99.90;;;;;;4954198;29;20035;-61
2024/02/02 01:15:49;;;;;;;7.38;4.88;;;20.70;99.90;;;;;;4954102;29;20039;-62
2024/02/02 01:18:16;;;;;;;8.05;5.00;;;20.70;99.90;;;;;;4953629;28;20042;-62
2024/02/02 01:20:42;;;;;;;6.00;4.72;;;20.70;99.90;;;;;;4954299;29;20027;-61
2024/02/02 01:23:09;;;;;;;6.50;4.70;;;20.70;99.90;;;;;;4953965;29;20035;-61
2024/02/02 01:25:35;;;;;;;7.40;4.88;;;20.70;99.90;;;;;;4954080;29;20059;-61
2024/02/02 01:28:01;;;;;;;7.88;4.90;;;20.70;99.90;;;;;;4954066;29;20036;-61
2024/02/02 01:30:29;;;;;;;6.82;4.82;;;20.70;99.90;;;;;;4954089;29;20082;-62
2024/02/02 01:32:58;;;;;;;8.13;5.20;;;20.60;99.90;;;;;;4936789;29;20027;-61
2024/02/02 01:35:24;;;;;;;7.28;4.68;;;20.60;99.90;;;;;;4954023;29;20443;-61
2024/02/02 01:37:50;;;;;;;7.05;4.68;;;20.60;99.90;;;;;;4953796;29;20488;-61
2024/02/02 01:40:16;;;;;;;7.30;5.10;;;20.60;99.90;;;;;;4954018;29;20106;-61
2024/02/02 01:42:42;;;;;;;7.10;4.80;;;20.60;99.90;;;;;;4936984;29;20103;-61
2024/02/02 01:45:08;;;;;;;7.65;5.03;;;20.60;99.90;;;;;;4936721;29;20143;-61
2024/02/02 01:47:35;;;;;;;7.88;4.75;;;20.60;99.90;;;;;;4953806;29;20034;-61
2024/02/02 01:50:02;;;;;;;5.20;4.40;;;20.60;99.90;;;;;;4953800;29;20034;-62
2024/02/02 01:52:29;;;;;;;6.20;4.28;;;20.60;99.90;;;;;;4953757;29;20030;-61
2024/02/02 01:54:55;;;;;;;8.15;4.90;;;20.60;99.90;;;;;;4953861;29;20036;-62
2024/02/02 01:57:21;;;;;;;7.45;4.75;;;20.60;99.90;;;;;;4936661;29;20032;-61
2024/02/02 01:59:48;;;;;;;6.05;4.15;;;20.60;99.90;;;;;;4953726;29;20086;-61
2024/02/02 02:02:14;;;;;;;7.65;4.25;;;20.60;99.90;;;;;;4954404;29;20054;-60
2024/02/02 02:04:40;;;;;;;6.55;4.68;;;20.60;99.90;;;;;;4953744;29;20023;-59
2024/02/02 02:07:07;;;;;;;5.73;4.40;;;20.60;99.90;;;;;;4953691;29;20031;-61
2024/02/02 02:09:34;;;;;;;7.60;4.55;;;20.60;99.90;;;;;;4953877;29;20134;-61
2024/02/02 02:12:00;;;;;;;5.97;4.28;;;20.50;99.90;;;;;;4953875;29;20369;-61
2024/02/02 02:14:26;;;;;;;7.30;5.00;;;20.50;99.90;;;;;;4953705;29;20383;-62
2024/02/02 02:16:52;;;;;;;6.65;4.47;;;20.50;99.90;;;;;;4953703;29;20110;-59
2024/02/02 02:19:18;;;;;;;6.38;4.30;;;20.50;99.90;;;;;;4953507;29;20114;-59
2024/02/02 02:21:44;;;;;;;7.28;4.00;;;20.50;99.90;;;;;;4953916;29;20384;-58
2024/02/02 02:24:10;;;;;;;6.25;4.22;;;20.50;99.90;;;;;;4953606;29;20067;-61
2024/02/02 02:26:36;;;;;;;7.70;4.25;;;20.50;99.90;;;;;;4953583;29;20078;-61
2024/02/02 02:29:02;;;;;;;6.95;4.32;;;20.50;99.90;;;;;;4953913;28;20436;-61
2024/02/02 02:31:28;;;;;;;5.82;4.60;;;20.50;99.90;;;;;;4939838;29;20023;-62
2024/02/02 02:33:54;;;;;;;6.55;4.53;;;20.50;99.90;;;;;;4957106;29;20391;-62
2024/02/02 02:36:20;;;;;;;5.72;3.92;;;20.50;99.90;;;;;;4956897;29;20118;-62
2024/02/02 02:38:47;;;;;;;6.82;3.60;;;20.50;99.90;;;;;;4939823;29;20483;-62
2024/02/02 02:41:13;;;;;;;6.28;4.30;;;20.50;99.90;;;;;;4956905;29;20047;-61
2024/02/02 02:43:39;;;;;;;4.90;3.78;;;20.50;99.90;;;;;;4956819;29;20037;-61
2024/02/02 02:46:06;;;;;;;5.90;4.00;;;20.50;99.90;;;;;;4956942;29;20098;-61
2024/02/02 02:48:32;;;;;;;6.13;3.40;;;20.50;99.90;;;;;;4956704;29;20031;-61
2024/02/02 02:50:58;;;;;;;5.53;4.18;;;20.40;99.90;;;;;;4956808;29;20403;-59
2024/02/02 02:53:23;;;;;;;5.72;4.03;;;20.50;99.90;;;;;;4956795;29;20027;-59
2024/02/02 02:55:49;;;;;;;5.63;4.07;;;20.40;99.90;;;;;;4956844;29;20102;-59
2024/02/02 02:58:15;;;;;;;4.70;4.00;;;20.40;99.90;;;;;;4956721;29;20031;-59
2024/02/02 03:00:41;;;;;;;7.22;3.92;;;20.40;99.90;;;;;;4956907;29;20039;-59
2024/02/02 03:03:07;;;;;;;6.90;3.67;;;20.40;99.90;;;;;;4955094;29;20373;-61
2024/02/02 03:05:33;;;;;;;7.45;4.53;;;20.40;99.90;;;;;;4956368;29;20031;-61
2024/02/02 03:07:59;;;;;;;5.72;3.80;;;20.40;99.90;;;;;;4956412;29;20019;-61
2024/02/02 03:10:25;;;;;;;6.05;4.00;;;20.40;99.90;;;;;;4956612;29;20372;-61
2024/02/02 03:12:52;;;;;;;4.80;3.85;;;20.40;99.90;;;;;;4956245;29;20035;-61
2024/02/02 03:15:21;;;;;;;5.53;3.42;;;20.40;99.90;;;;;;4939313;29;20503;-62
2024/02/02 03:17:48;;;;;;;7.57;4.68;;;20.40;99.90;;;;;;4956263;29;20435;-61
2024/02/02 03:20:15;;;;;;;5.57;3.60;;;20.40;99.90;;;;;;4938926;29;20031;-61
2024/02/02 03:22:41;;;;;;;7.50;4.10;;;20.40;99.90;;;;;;4956228;29;20499;-61
2024/02/02 03:25:07;;;;;;;5.60;3.65;;;20.40;99.90;;;;;;4956033;29;20054;-60
2024/02/02 03:27:33;;;;;;;4.32;3.60;;;20.40;99.90;;;;;;4938767;29;20031;-60
2024/02/02 03:29:59;;;;;;;6.38;4.30;;;20.40;99.90;;;;;;4955975;29;20051;-62
2024/02/02 03:32:25;;;;;;;5.55;3.80;;;20.40;99.90;;;;;;4956061;29;20420;-62
2024/02/02 03:34:51;;;;;;;7.32;3.58;;;20.40;99.90;;;;;;4955939;29;20024;-61
2024/02/02 03:37:18;;;;;;;5.78;3.90;;;20.40;99.90;;;;;;4955798;29;20033;-62
2024/02/02 03:39:45;;;;;;;7.57;3.55;;;20.40;99.90;;;;;;4955715;28;20369;-62
2024/02/02 03:42:15;;;;;;;6.55;3.53;;;20.30;99.90;;;;;;4938998;29;20074;-61
2024/02/02 03:44:40;;;;;;;6.05;4.15;;;20.30;99.90;;;;;;4955708;29;20479;-62
2024/02/02 03:47:06;;;;;;;6.32;3.85;;;20.30;99.90;;;;;;4955881;29;20035;-63
2024/02/02 03:49:33;;;;;;;6.60;3.70;;;20.30;99.90;;;;;;4955575;29;20023;-62
2024/02/02 03:52:06;;;;;;;6.88;3.83;;;20.30;99.90;;;;;;4954403;29;20472;-62
2024/02/02 03:54:32;;;;;;;5.47;3.10;;;20.30;99.90;;;;;;4955559;29;20034;-63
2024/02/02 03:56:58;;;;;;;5.78;3.53;;;20.30;99.90;;;;;;4955461;29;20035;-63
2024/02/02 03:59:24;;;;;;;4.35;3.80;;;20.30;99.90;;;;;;4955300;29;20031;-63
2024/02/02 04:01:51;;;;;;;5.15;3.65;;;20.30;99.90;;;;;;4955643;29;20186;-63
2024/02/02 04:04:17;;;;;;;8.52;3.80;;;20.30;99.90;;;;;;4955396;29;20027;-63
2024/02/02 04:06:42;;;;;;;6.43;3.70;;;20.30;99.90;;;;;;4955184;29;20027;-62
2024/02/02 04:09:08;;;;;;;6.97;3.30;;;20.30;99.90;;;;;;4955442;29;20068;-64
2024/02/02 04:11:37;;;;;;;5.60;3.22;;;20.30;99.90;;;;;;4955216;29;20102;-61
2024/02/02 04:14:03;;;;;;;7.15;3.63;;;20.30;99.90;;;;;;4955050;29;20097;-61
2024/02/02 04:16:29;;;;;;;4.82;3.85;;;20.30;99.90;;;;;;4955051;29;20479;-62
2024/02/02 04:18:55;;;;;;;5.68;3.58;;;20.30;99.90;;;;;;4954996;29;20043;-61
2024/02/02 04:21:21;;;;;;;5.68;3.20;;;20.20;99.90;;;;;;4938042;29;20043;-61
2024/02/02 04:23:47;;;;;;;4.88;3.30;;;20.20;99.90;;;;;;4955039;29;20408;-62
2024/02/02 04:26:12;;;;;;;5.38;3.30;;;20.20;99.90;;;;;;4954978;29;20023;-61
2024/02/02 04:28:38;;;;;;;6.70;3.35;;;20.20;99.90;;;;;;4954980;29;20436;-61
2024/02/02 04:31:04;;;;;;;4.13;3.08;;;20.20;99.90;;;;;;4937753;29;20027;-61
2024/02/02 04:33:30;;;;;;;7.13;3.47;;;20.20;99.90;;;;;;4954867;29;20028;-63
2024/02/02 04:35:56;;;;;;;6.55;3.10;;;20.20;99.90;;;;;;4954906;29;20027;-62
2024/02/02 04:38:21;;;;;;;6.50;3.40;;;20.20;99.90;;;;;;4954551;29;20480;-61
2024/02/02 04:40:47;;;;;;;6.78;3.42;;;20.20;99.90;;;;;;4954770;29;20027;-61
2024/02/02 04:43:13;;;;;;;3.78;2.85;;;20.20;99.90;;;;;;4954671;29;20042;-60
2024/02/02 04:45:40;;;;;;;4.93;3.00;;;20.20;99.90;;;;;;4954937;29;20479;-60
2024/02/02 04:48:07;;;;;;;5.50;3.22;;;20.20;99.90;;;;;;4954623;29;20226;-60
2024/02/02 04:50:32;;;;;;;16.70;3.65;;;20.10;99.90;;;;;;4954449;29;20061;-61
2024/02/02 04:52:58;;;;;;;4.07;2.78;;;20.20;99.90;;;;;;4953997;28;20067;-61
2024/02/02 04:55:24;;;;;;;4.57;2.70;;;20.20;99.90;;;;;;4954612;29;20055;-60
2024/02/02 04:57:50;;;;;;;4.55;3.03;;;20.20;99.90;;;;;;4954307;29;20078;-60
2024/02/02 05:00:17;;;;;;;4.93;3.10;;;20.10;99.90;;;;;;4954194;29;20031;-61
2024/02/02 05:02:42;;;;;;;4.80;2.72;;;20.10;99.90;;;;;;4937749;29;20066;-61
2024/02/02 05:05:09;;;;;;;4.95;2.72;;;20.10;99.90;;;;;;4954323;29;20035;-61
2024/02/02 05:07:35;;;;;;;5.40;2.97;;;20.10;99.90;;;;;;4954348;29;20031;-61
2024/02/02 05:10:04;;;;;;;3.77;2.87;;;20.10;99.90;;;;;;4954335;29;20030;-61
2024/02/02 05:12:30;;;;;;;3.63;2.90;;;20.10;99.90;;;;;;4954183;29;20016;-61
2024/02/02 05:14:56;;;;;;;6.13;2.95;;;20.10;99.90;;;;;;4954523;29;20024;-61
2024/02/02 05:17:22;;;;;;;4.15;3.10;;;20.10;99.90;;;;;;4954200;29;20024;-60
2024/02/02 05:19:48;;;;;;;4.57;3.10;;;20.10;99.90;;;;;;4936921;29;20027;-62
2024/02/02 05:22:13;;;;;;;5.28;3.00;;;20.10;99.90;;;;;;4954401;29;20496;-61
2024/02/02 05:24:39;;;;;;;4.20;2.80;;;20.00;99.90;;;;;;4954046;29;20031;-61
2024/02/02 05:27:05;;;;;;;5.18;3.03;;;20.00;99.90;;;;;;4954136;29;20359;-61
2024/02/02 05:29:31;;;;;;;5.47;2.95;;;20.10;99.90;;;;;;4954162;29;20027;-61
2024/02/02 05:31:56;;;;;;;6.05;3.13;;;20.00;99.90;;;;;;4952855;29;20027;-61
2024/02/02 05:34:22;;;;;;;4.97;2.33;;;20.00;99.90;;;;;;4954058;29;20024;-61
2024/02/02 05:36:48;;;;;;;4.30;2.88;;;20.00;99.90;;;;;;4954030;29;20063;-61
2024/02/02 05:39:14;;;;;;;4.38;2.65;;;20.00;99.90;;;;;;4952831;29;20043;-61
2024/02/02 05:41:40;;;;;;;3.80;2.40;;;20.00;99.90;;;;;;4953942;29;20476;-61
2024/02/02 05:44:05;;;;;;;6.18;2.70;;;20.00;99.90;;;;;;4954061;29;20424;-59
2024/02/02 05:46:31;;;;;;;3.90;2.85;;;20.00;99.90;;;;;;4954155;29;20103;-60
2024/02/02 05:48:57;;;;;;;3.65;2.78;;;20.00;99.90;;;;;;4953997;29;20028;-62
2024/02/02 05:51:23;;;;;;;5.55;2.90;;;20.00;99.90;;;;;;4954009;29;20372;-63
2024/02/02 05:53:48;;;;;;;3.65;2.33;;;20.00;99.90;;;;;;4953903;29;20381;-61
2024/02/02 05:56:14;;;;;;;5.05;2.67;;;20.00;99.90;;;;;;4953857;29;20027;-62
2024/02/02 05:58:40;;;;;;;3.08;2.50;;;20.00;99.90;;;;;;4953818;29;20094;-62
2024/02/02 06:01:05;;;;;;;6.13;2.80;;;19.90;99.90;;;;;;4952337;29;20070;-61
2024/02/02 06:03:31;;;;;;;4.97;2.50;;;19.90;99.90;;;;;;4936917;29;20055;-61
2024/02/02 06:05:57;;;;;;;3.78;2.70;;;20.00;99.90;;;;;;4957303;29;20031;-64
2024/02/02 06:08:23;;;;;;;6.50;2.55;;;19.90;99.90;;;;;;4956133;29;20073;-62
2024/02/02 06:10:49;;;;;;;4.00;2.50;;;19.90;99.90;;;;;;4956326;29;20480;-62
2024/02/02 06:13:18;;;;;;;4.05;2.55;;;19.90;99.90;;;;;;4956608;29;20146;-61
2024/02/02 06:15:44;;;;;;;6.47;2.80;;;19.90;99.90;;;;;;4957947;29;20062;-62
2024/02/02 06:18:09;;;;;;;3.60;2.63;;;19.90;99.90;;;;;;4957193;29;20035;-61
2024/02/02 06:20:35;;;;;;;4.45;2.35;;;19.90;99.90;;;;;;4957238;29;20357;-62
2024/02/02 06:23:01;;;;;;;3.40;2.60;;;19.90;99.90;;;;;;4957211;29;20075;-61
2024/02/02 06:25:27;;;;;;;5.13;2.40;;;19.90;99.90;;;;;;4940001;29;20023;-62
2024/02/02 06:27:53;;;;;;;4.53;2.63;;;19.90;99.90;;;;;;4957244;29;20030;-61
2024/02/02 06:30:19;;;;;;;3.70;2.38;;;19.90;99.90;;;;;;4957093;29;20027;-61
2024/02/02 06:32:49;;;;;;;3.75;2.30;;;19.90;99.90;;;;;;4955972;29;20051;-61
2024/02/02 06:35:17;;;;;;;4.18;2.75;;;19.90;99.90;;;;;;4957309;29;20391;-61
2024/02/02 06:37:43;;;;;;;3.80;2.28;;;19.90;99.90;;;;;;4956864;29;20107;-61
2024/02/02 06:40:10;;;;;;;6.85;3.17;;;19.90;99.90;;;;;;4956746;29;20452;-62
2024/02/02 06:42:35;;;;;;;6.15;2.75;;;19.90;99.90;;;;;;4955604;29;20114;-62
2024/02/02 06:45:01;;;;;;;5.00;2.53;;;19.90;99.90;;;;;;4955709;29;20119;-62
2024/02/02 06:47:27;;;;;;;5.60;3.08;;;19.80;99.90;;;;;;4956772;29;20027;-62
2024/02/02 06:49:53;;;;;;;3.58;2.42;;;19.80;99.90;;;;;;4956684;29;20083;-62
2024/02/02 06:52:20;;;;;;;3.38;2.40;;;19.80;99.90;;;;;;4956619;29;20027;-62
2024/02/02 06:54:46;;;;;;;6.50;3.13;;;19.80;99.90;;;;;;4956885;29;20024;-62
2024/02/02 06:57:13;;;;;;;5.47;2.70;;;19.90;99.90;;;;;;4956545;29;20078;-61
2024/02/02 06:59:41;;;;;;;4.77;2.63;;;19.80;99.90;;;;;;4956417;29;20514;-61
2024/02/02 07:02:21;;;;;;;3.95;2.97;;;19.80;99.90;;;;;;4956360;29;20286;-61
2024/02/02 07:04:48;;;;;;;6.07;3.30;;;19.80;99.90;;;;;;4956701;29;20031;-61
2024/02/02 07:07:14;;;;;;;4.05;3.13;;;19.80;99.90;;;;;;4955154;29;20115;-61
2024/02/02 07:09:48;;;;;;;5.03;3.25;;;19.80;99.90;;;;;;4956264;29;20063;-62
2024/02/02 07:12:43;;;;;;;4.60;3.22;;;19.80;99.90;;;;;;4955182;29;20431;-62
2024/02/02 07:15:17;;;;;;;5.70;3.45;;;19.80;99.90;;;;;;4955457;28;20424;-62
2024/02/02 07:17:45;;;;;;;4.18;3.50;;;19.80;99.90;;;;;;4954777;29;20122;-62
2024/02/02 07:20:23;;;;;;;5.07;3.05;;;19.80;99.90;;;;;;4956171;29;20669;-62
2024/02/02 07:22:53;;;;;;;4.45;3.00;;;19.80;99.90;;;;;;4956264;29;20110;-62
2024/02/02 07:25:20;;;;;;;4.45;2.92;;;19.80;99.90;;;;;;4939020;29;20038;-62
2024/02/02 07:27:56;;;;;;;6.40;3.55;;;19.80;99.90;;;;;;4955969;29;20031;-62
2024/02/02 07:30:34;;;;;;;5.72;3.60;;;19.80;99.90;;;;;;4954799;29;20436;-61
2024/02/02 07:33:00;;;;;;;5.70;2.95;;;19.80;99.90;;;;;;4955933;29;20691;-61
2024/02/02 07:35:34;;;;;;;6.97;3.80;;;19.70;99.90;;;;;;4954759;29;20055;-62
2024/02/02 07:38:07;;;;;;;4.93;3.35;;;19.80;99.90;;;;;;4955667;29;20056;-61
2024/02/02 07:40:44;;;;;;;7.53;3.33;;;19.70;99.90;;;;;;4955894;29;20026;-61
2024/02/02 07:43:10;;;;;;;4.47;3.43;;;19.70;99.90;;;;;;4954525;29;20031;-60
2024/02/02 07:45:35;;;;;;;5.80;3.80;;;19.80;99.90;;;;;;4955713;29;20035;-61
2024/02/02 07:48:01;;;;;;;5.93;3.13;;;19.80;99.90;;;;;;4955747;29;20078;-61
2024/02/02 07:50:27;;;;;;;5.70;3.78;;;19.80;99.90;;;;;;4938422;29;20113;-61
2024/02/02 07:52:54;;;;;;;6.43;3.47;;;19.70;99.90;;;;;;4955705;29;20035;-63
2024/02/02 07:55:20;;;;;;;4.00;3.05;;;19.80;99.90;;;;;;4955838;29;20158;-64
2024/02/02 07:57:46;;;;;;;4.70;3.60;;;19.80;99.90;;;;;;4955304;29;20114;-63
2024/02/02 08:00:12;;;;;;;4.45;2.85;;;19.80;99.90;;;;;;4955301;29;20494;-63
2024/02/02 08:02:38;;;;;;;5.70;3.47;;;19.80;99.90;;;;;;4937968;29;20030;-64
2024/02/02 08:05:07;;;;;;;6.65;3.70;;;19.80;99.90;;;;;;4955159;29;20027;-64
2024/02/02 08:07:34;;;;;;;8.90;3.88;;;19.80;99.90;;;;;;4955493;29;20376;-65
2024/02/02 08:10:00;;;;;;;6.50;3.70;;;19.80;99.90;;;;;;4955187;29;20024;-64
2024/02/02 08:12:26;;;;;;;5.95;3.20;;;19.90;99.90;;;;;;4954950;29;20034;-63
2024/02/02 08:14:51;;;;;;;4.65;3.53;;;19.90;99.90;;;;;;4955364;29;20027;-64
2024/02/02 08:17:17;;;;;;;6.45;3.97;;;19.90;99.90;;;;;;4953962;29;20041;-63
2024/02/02 08:19:43;;;;;;;5.80;3.22;;;19.90;99.90;;;;;;4955092;29;20031;-63
2024/02/02 08:22:09;;;;;;;46.13;4.10;;;19.90;99.90;;;;;;4954966;29;20027;-63
2024/02/02 08:24:35;;;;;;;6.38;2.85;;;19.90;99.90;;;;;;4955041;29;20038;-63
2024/02/02 08:27:01;;;;;;;5.88;3.45;;;19.90;99.90;;;;;;4954037;28;20027;-61
2024/02/02 08:29:28;;;;;;;5.05;3.33;;;20.00;99.90;;;;;;4954823;29;20035;-62
2024/02/02 08:31:55;;;;;;;4.68;3.13;;;20.00;99.90;;;;;;4955162;29;20472;-61
2024/02/02 08:34:21;;;;;;;5.18;3.70;;;20.00;99.90;;;;;;4954998;29;20082;-61
2024/02/02 08:36:46;;;;;;;5.90;3.28;;;20.00;99.90;;;;;;4954634;29;20023;-60
2024/02/02 08:39:13;;;;;;;6.93;3.47;;;20.00;99.90;;;;;;4954658;29;20499;-60
2024/02/02 08:41:39;;;;;;;5.00;3.25;;;20.00;99.90;;;;;;4954716;29;20432;-59
2024/02/02 08:44:23;;;;;;;6.68;3.50;;;20.00;99.90;;;;;;4954609;29;20027;-60
2024/02/02 08:46:52;;;;;;;5.38;3.25;;;20.10;99.90;;;;;;4954484;29;20432;-60
2024/02/02 08:49:40;;;;;;;6.82;4.28;;;20.10;99.90;;;;;;4954417;29;20059;-61
2024/02/02 08:52:11;;;;;;;5.28;2.85;;;20.10;99.90;;;;;;4954510;29;20027;-60
2024/02/02 08:54:44;;;;;;;4.15;2.90;;;20.10;99.90;;;;;;4954596;29;20379;-61
2024/02/02 08:57:29;;;;;;;5.88;3.08;;;20.10;99.90;;;;;;4954485;29;20460;-61
2024/02/02 08:59:55;;;;;;;7.45;3.38;;;20.20;99.90;;;;;;4954565;29;20046;-61
2024/02/02 09:02:47;;;;;;;7.07;3.10;;;20.10;99.90;;;;;;4954514;29;20122;-61
2024/02/02 09:05:16;;;;;;;6.45;3.30;;;20.10;99.90;;;;;;4954227;29;20488;-61
2024/02/02 09:07:43;;;;;;;5.03;3.35;;;20.20;99.90;;;;;;4954280;29;20046;-61
2024/02/02 09:10:36;;;;;;;5.95;3.20;;;20.20;99.90;;;;;;4954263;29;20039;-61
2024/02/02 09:13:03;;;;;;;6.85;3.35;;;20.20;99.90;;;;;;4954166;29;20110;-61
2024/02/02 09:15:33;;;;;;;7.75;3.28;;;20.20;99.90;;;;;;4953029;29;20027;-61
2024/02/02 09:18:00;;;;;;;5.05;3.13;;;20.20;99.90;;;;;;4954065;29;20027;-61
2024/02/02 09:20:45;;;;;;;5.25;2.58;;;20.20;99.90;;;;;;4953034;29;20024;-61
2024/02/02 09:23:13;;;;;;;6.43;3.00;;;20.30;99.90;;;;;;4954190;29;20028;-61
2024/02/02 09:25:40;;;;;;;;;;;20.30;99.90;;;;;;4954578;29;20024;-61
2024/02/02 09:28:20;;;;;;;;;;;20.40;99.90;;;;;;4954461;29;20036;-61
2024/02/02 09:30:45;;;;;;;6.70;3.65;;;20.40;99.90;;;;;;4954052;29;19906;-61
2024/02/02 09:33:43;;;;;;;6.05;3.13;;;20.40;99.90;;;;;;4954078;29;20054;-61
2024/02/02 09:36:11;;;;;;;7.93;3.17;;;20.40;99.90;;;;;;4953964;29;20031;-60
2024/02/02 09:38:37;;;;;;;6.50;3.60;;;20.40;99.90;;;;;;4955247;28;20464;-60
2024/02/02 09:41:06;;;;;;;6.90;3.75;;;20.50;99.90;;;;;;4957853;29;20031;-61
2024/02/02 09:43:56;;;;;;;9.63;3.47;;;20.50;99.90;;;;;;4957889;29;20028;-61
2024/02/02 09:46:43;;;;;;;5.68;3.40;;;20.50;99.90;;;;;;4957982;29;20026;-62
2024/02/02 09:49:22;;;;;;;9.68;5.03;;;20.60;99.90;;;;;;4957754;29;20459;-61
2024/02/02 09:52:02;;;;;;;8.63;4.05;;;20.60;99.90;;;;;;4957747;29;20524;-61
2024/02/02 09:55:25;;;;;;;6.78;3.65;;;20.60;99.90;;;;;;4957746;29;20059;-61
2024/02/02 09:57:57;;;;;;;8.50;3.10;;;20.60;99.90;;;;;;4916867;29;20036;-61
2024/02/02 10:00:41;;;;;;;8.98;3.63;;;20.70;99.90;;;;;;4917122;29;20028;-61
2024/02/02 10:03:45;;;;;;;6.50;3.67;;;20.70;99.90;;;;;;4942854;29;20455;-60
2024/02/02 10:06:12;;;;;;;5.65;3.17;;;20.70;99.90;;;;;;4957420;29;20055;-60
2024/02/02 10:08:57;;;;;;;8.57;3.80;;;20.80;99.90;;;;;;4957353;29;20090;-60
2024/02/02 10:12:00;;;;;;;6.80;3.33;;;20.80;99.90;;;;;;4957395;29;20062;-60
2024/02/02 10:14:52;;;;;;;4.20;2.72;;;20.80;99.90;;;;;;4957608;29;20102;-60
2024/02/02 10:17:41;;;;;;;5.25;3.17;;;20.90;99.90;;;;;;4932358;29;20039;-60
2024/02/02 10:20:16;;;;;;;7.97;3.63;;;20.90;99.90;;;;;;4939722;29;20067;-60
2024/02/02 10:23:13;;;;;;;4.63;2.92;;;20.90;99.90;;;;;;4957153;29;20058;-60
2024/02/02 10:25:47;;;;;;;;;;;21.00;99.90;;;;;;4957602;29;20067;-60
2024/02/02 10:28:15;;;;;;;7.70;2.92;;;21.00;99.90;;;;;;4957121;29;19910;-61
2024/02/02 10:31:28;;;;;;;5.25;3.05;;;21.10;99.90;;;;;;4956879;29;20028;-61
2024/02/02 10:34:00;;;;;;;4.57;2.97;;;21.10;99.90;;;;;;4955826;29;20173;-60
2024/02/02 10:36:55;;;;;;;5.38;2.85;;;21.20;99.90;;;;;;4955663;29;20039;-60
2024/02/02 10:39:58;;;;;;;5.00;3.05;;;21.20;99.90;;;;;;4956798;29;20162;-61
2024/02/02 10:42:48;;;;;;;5.57;3.45;;;21.30;99.90;;;;;;4956823;29;20035;-61
2024/02/02 10:45:41;;;;;;;7.50;3.63;;;21.40;99.90;;;;;;4956864;29;20023;-60
2024/02/02 10:48:09;;;;;;;10.02;3.60;;;21.40;99.90;;;;;;4956762;29;20031;-61
2024/02/02 10:50:47;;;;;;;5.70;3.70;;;21.40;99.90;;;;;;4955740;28;20436;-60
2024/02/02 10:53:34;;;;;;;6.93;4.07;;;21.50;99.90;;;;;;4955460;29;20171;-61
2024/02/02 10:56:28;;;;;;;5.68;3.67;;;21.50;99.90;;;;;;4955521;29;20027;-62
2024/02/02 10:59:09;;;;;;;6.78;4.13;;;21.60;99.90;;;;;;4956525;29;20040;-61
2024/02/02 11:01:52;;;;;;;9.13;3.92;;;21.60;99.90;;;;;;4955086;29;20445;-61
2024/02/02 11:05:05;;;;;;;5.65;3.85;;;21.70;99.90;;;;;;4956369;29;20031;-60
2024/02/02 11:07:38;;;;;;;8.52;3.92;;;21.70;99.90;;;;;;4956560;29;20027;-62
2024/02/02 11:10:15;;;;;;;5.63;3.92;;;21.70;99.90;;;;;;4938993;29;20027;-61
2024/02/02 11:13:12;;;;;;;10.75;4.90;;;21.80;99.90;;;;;;4956135;29;20024;-61
2024/02/02 11:15:37;;;;;;;6.70;4.03;;;21.80;99.90;;;;;;4956047;29;20133;-60
2024/02/02 11:18:31;;;;;;;4.93;3.67;;;21.90;99.90;;;;;;4956165;29;20492;-60
2024/02/02 11:20:57;;;;;;;6.75;4.32;;;21.90;99.90;;;;;;4955970;29;20035;-60
2024/02/02 11:23:28;;;;;;;9.07;4.00;;;21.90;99.90;;;;;;4956116;29;20019;-61
2024/02/02 11:26:05;;;;;;;6.65;4.57;;;21.90;99.90;;;;;;4954801;29;20487;-60
2024/02/02 11:28:41;;;;;;;9.48;4.78;;;22.00;99.90;;;;;;4956207;29;20027;-61
2024/02/02 11:31:25;;;;;;;10.73;4.95;;;22.00;99.90;;;;;;4956186;29;20028;-60
2024/02/02 11:33:54;;;;;;;7.55;4.15;;;22.00;99.90;;;;;;4954631;29;20063;-61
2024/02/02 11:36:32;;;;;;;8.25;4.68;;;22.10;99.90;;;;;;4955926;29;20035;-59
2024/02/02 11:39:03;;;;;;;;;;;22.10;99.90;;;;;;4956226;29;20047;-60
2024/02/02 11:41:33;;;;;;;12.75;4.72;;;22.20;99.90;;;;;;4956072;29;19938;-60
2024/02/02 11:44:01;;;;;;;9.30;5.20;;;22.20;99.90;;;;;;4955690;29;20163;-60
2024/02/02 11:46:28;;;;;;;8.60;4.80;;;22.20;99.90;;;;;;4955745;29;20097;-60
2024/02/02 11:49:05;;;;;;;;;;;22.20;99.90;;;;;;4956037;29;20026;-62
2024/02/02 11:51:36;;;;;;;10.27;4.13;;;22.30;99.90;;;;;;4957682;29;20426;-64
2024/02/02 11:54:16;;;;;;;13.45;5.15;;;22.30;99.90;;;;;;4949395;29;20028;-64
2024/02/02 11:56:49;;;;;;;8.68;4.57;;;22.30;99.90;;;;;;4946687;29;20038;-63
2024/02/02 11:59:32;;;;;;;10.88;5.35;;;22.30;99.90;;;;;;4953205;29;20476;-66
2024/02/02 12:02:16;;;;;;;8.55;4.75;;;22.40;99.90;;;;;;4946754;28;20058;-62
2024/02/02 12:04:49;;;;;;;12.75;5.43;;;22.40;99.90;;;;;;4936818;29;20027;-62
2024/02/02 12:07:42;;;;;;;12.10;5.20;;;22.40;99.90;;;;;;4936043;29;20502;-59
2024/02/02 12:10:11;;;;;;;8.48;4.43;;;22.50;99.90;;;;;;4936009;29;20035;-60
2024/02/02 12:12:43;;;;;;;7.70;4.70;;;22.60;99.90;;;;;;4937707;29;20031;-61
2024/02/02 12:15:09;;;;;;;15.60;5.30;;;22.60;99.90;;;;;;4946786;29;20118;-62
2024/02/02 12:17:38;;;;;;;10.75;5.15;;;22.60;99.90;;;;;;4955471;29;20019;-67
2024/02/02 12:20:09;;;;;;;11.50;5.13;;;22.60;99.90;;;;;;4955573;29;20086;-61
2024/02/02 12:22:35;;;;;;;11.82;5.05;;;22.70;99.90;;;;;;4947117;29;20421;-65
2024/02/02 12:25:04;;;;;;;8.60;4.45;;;22.70;99.90;;;;;;4935963;29;20051;-62
2024/02/02 12:27:31;;;;;;;8.75;5.13;;;22.70;99.90;;;;;;4939074;29;20023;-61
2024/02/02 12:29:57;;;;;;;10.55;5.10;;;22.80;99.90;;;;;;4949759;28;20034;-59
2024/02/02 12:32:23;;;;;;;9.90;4.82;;;22.80;99.90;;;;;;4950815;28;20114;-59
2024/02/02 12:34:50;;;;;;;8.18;4.50;;;22.80;99.90;;;;;;4941979;29;20110;-58
2024/02/02 12:37:16;;;;;;;9.27;4.35;;;22.80;99.90;;;;;;4947342;29;20082;-57
2024/02/02 12:39:42;;;;;;;9.85;5.00;;;22.90;99.90;;;;;;4954689;29;20476;-59
2024/02/02 12:42:08;;;;;;;10.82;4.78;;;22.90;99.90;;;;;;4954604;29;20106;-58
2024/02/02 12:44:34;;;;;;;9.55;4.75;;;22.90;99.90;;;;;;4955391;29;20031;-57
2024/02/02 12:47:00;;;;;;;13.88;5.78;;;22.90;99.90;;;;;;4954578;29;20019;-58
2024/02/02 12:49:27;;;;;;;15.23;4.70;;;23.00;99.90;;;;;;4942721;29;20134;-58
2024/02/02 12:51:54;;;;;;;7.43;5.03;;;23.00;99.90;;;;;;4935467;29;20027;-59
2024/02/02 12:54:20;;;;;;;11.02;4.88;;;23.00;99.90;;;;;;4936757;29;20485;-56
2024/02/02 12:56:46;;;;;;;9.63;4.78;;;23.00;99.90;;;;;;4942783;29;20039;-57
2024/02/02 12:59:16;;;;;;;11.77;5.35;;;23.10;99.90;;;;;;4927393;29;20031;-59
2024/02/02 13:01:42;;;;;;;9.85;4.70;;;23.10;99.90;;;;;;4945129;29;20126;-58